Time;durP1;ratioP1;P1;durP2;ratioP2;P2;SDS_P1;SDS_P2;PMS_P1;PMS_P2;Temp;Humidity;BMP_temperature;BMP_pressure;BME280_temperature;BME280_humidity;BME280_pressure;Samples;Min_cycle;Max_cycle;Signal;HPM_P1;HPM_P2
2021/12/26 00:00:54;;;;;;;6.35;2.60;;;;;;;-3.29;94.43;100655.22;5260639;28;20064;-70
2021/12/26 00:03:28;;;;;;;5.63;2.40;;;;;;;-3.29;93.80;100662.19;5261829;28;20210;-70
2021/12/26 00:06:06;;;;;;;5.75;2.47;;;;;;;-3.29;94.14;100656.97;5260652;28;20040;-70
2021/12/26 00:08:39;;;;;;;5.03;2.83;;;;;;;-3.32;94.07;100652.69;5263424;28;20040;-70
2021/12/26 00:11:11;;;;;;;5.13;2.57;;;;;;;-3.34;93.89;100654.47;5259408;28;20027;-70
2021/12/26 00:13:42;;;;;;;4.70;2.30;;;;;;;-3.36;93.79;100656.25;5259346;28;20505;-71
2021/12/26 00:16:14;;;;;;;6.70;3.60;;;;;;;-3.32;96.22;100664.88;5262524;28;21564;-71
2021/12/26 00:18:46;;;;;;;6.30;2.95;;;;;;;-3.39;94.30;100657.19;5259500;28;20062;-71
2021/12/26 00:21:21;;;;;;;9.07;2.60;;;;;;;-3.39;94.64;100654.56;5261773;28;20449;-71
2021/12/26 00:23:53;;;;;;;5.32;2.60;;;;;;;-3.44;94.07;100642.53;5260503;28;20028;-71
2021/12/26 00:26:25;;;;;;;5.95;3.05;;;;;;;-3.45;93.73;100646.00;5263282;28;20040;-71
2021/12/26 00:28:56;;;;;;;5.87;2.60;;;;;;;-3.47;93.35;100640.84;5262821;28;20424;-71
2021/12/26 00:31:27;;;;;;;6.05;3.22;;;;;;;-3.47;94.42;100639.97;5266116;28;20343;-71
2021/12/26 00:33:59;;;;;;;6.67;3.17;;;;;;;-3.52;94.11;100634.03;5266173;28;20027;-71
2021/12/26 00:36:30;;;;;;;5.93;2.97;;;;;;;-3.46;95.78;100636.50;5275067;28;20889;-71
2021/12/26 00:39:03;;;;;;;5.97;3.05;;;;;;;-3.49;95.24;100634.81;5269387;28;20043;-71
2021/12/26 00:41:35;;;;;;;7.37;3.03;;;;;;;-3.55;95.10;100632.31;5274363;28;20025;-71
2021/12/26 00:44:08;;;;;;;6.83;3.00;;;;;;;-3.59;93.05;100636.75;5267627;28;20044;-71
2021/12/26 00:46:39;;;;;;;5.80;3.00;;;;;;;-3.59;94.48;100631.53;5258269;28;20482;-71
2021/12/26 00:49:11;;;;;;;6.30;2.97;;;;;;;-3.59;94.70;100633.28;5261080;28;20107;-71
2021/12/26 00:51:42;;;;;;;6.80;3.05;;;;;;;-3.55;96.86;100630.59;5261771;28;20790;-71
2021/12/26 00:54:13;;;;;;;6.03;2.70;;;;;;;-3.60;95.86;100636.78;5262412;28;20066;-71
2021/12/26 00:56:45;;;;;;;8.13;3.00;;;;;;;-3.58;96.91;100637.63;5260022;28;20151;-71
2021/12/26 00:59:16;;;;;;;5.93;2.63;;;;;;;-3.59;95.38;100641.09;5259871;28;20036;-71
2021/12/26 01:01:47;;;;;;;5.60;2.67;;;;;;;-3.53;95.71;100637.50;5258310;28;20086;-71
2021/12/26 01:04:20;;;;;;;7.47;2.90;;;;;;;-3.50;94.96;100643.50;5260189;28;20083;-71
2021/12/26 01:06:51;;;;;;;6.63;3.17;;;;;;;-3.40;96.84;100638.94;5269969;28;20505;-71
2021/12/26 01:09:27;;;;;;;6.57;2.97;;;;;;;-3.42;94.88;100644.19;5268901;28;20043;-71
2021/12/26 01:12:01;;;;;;;6.43;3.15;;;;;;;-3.28;97.74;100638.69;5262540;28;20115;-71
2021/12/26 01:14:32;;;;;;;;;;;;;;;-3.25;98.96;100645.59;5262887;28;20485;-71
2021/12/26 01:17:10;;;;;;;6.53;3.22;;;;;;;-3.21;96.83;100645.47;5258934;28;19923;-71
2021/12/26 01:19:47;;;;;;;5.40;2.35;;;;;;;-3.19;95.85;100640.22;5265982;28;20467;-71
2021/12/26 01:22:19;;;;;;;6.90;3.20;;;;;;;-3.13;94.70;100631.38;5264163;28;20474;-71
2021/12/26 01:24:56;;;;;;;7.53;3.05;;;;;;;-3.08;93.79;100634.75;5270763;28;20027;-71
2021/12/26 01:27:27;;;;;;;5.03;2.83;;;;;;;-3.06;93.20;100633.81;5268256;28;20110;-71
2021/12/26 01:29:59;;;;;;;5.97;2.70;;;;;;;-3.04;93.17;100634.63;5273686;28;20119;-71
2021/12/26 01:32:31;;;;;;;9.00;3.20;;;;;;;-2.97;94.84;100624.94;5270767;28;20086;-71
2021/12/26 01:35:02;;;;;;;7.43;3.60;;;;;;;-2.99;92.38;100626.72;5267175;28;20174;-71
2021/12/26 01:37:33;;;;;;;6.50;3.08;;;;;;;-2.91;95.29;100622.16;5268660;28;20069;-71
2021/12/26 01:40:06;;;;;;;6.97;3.30;;;;;;;-2.95;92.94;100623.13;5273005;28;20441;-71
2021/12/26 01:42:37;;;;;;;5.88;3.20;;;;;;;-2.89;94.08;100624.75;5269644;28;20032;-71
2021/12/26 01:45:10;;;;;;;5.68;3.05;;;;;;;-2.87;94.71;100621.19;5268200;28;20402;-71
2021/12/26 01:47:45;;;;;;;6.47;3.00;;;;;;;-2.82;95.41;100619.31;5271559;28;20025;-71
2021/12/26 01:50:17;;;;;;;7.97;3.05;;;;;;;-2.83;93.05;100628.03;5267386;28;20545;-71
2021/12/26 01:52:48;;;;;;;6.90;3.30;;;;;;;-2.79;93.74;100623.59;5277219;28;20029;-71
2021/12/26 01:55:38;;;;;;;8.77;3.50;;;;;;;-2.77;95.16;100620.03;5268419;28;20039;-71
2021/12/26 01:58:22;;;;;;;6.28;3.47;;;;;;;-2.72;94.67;100627.78;5270658;28;20028;-71
2021/12/26 02:00:57;;;;;;;6.20;2.85;;;;;;;-2.76;92.20;100620.94;5276569;28;20033;-71
2021/12/26 02:03:28;;;;;;;5.85;3.22;;;;;;;-2.68;93.26;100623.34;5273716;28;20473;-71
2021/12/26 02:06:01;;;;;;;6.45;3.58;;;;;;;-2.71;92.19;100612.97;5273518;28;20097;-71
2021/12/26 02:08:33;;;;;;;6.40;2.88;;;;;;;-2.64;93.61;100615.38;5271201;28;20044;-71
2021/12/26 02:11:04;;;;;;;8.18;3.20;;;;;;;-2.64;92.80;100617.16;5269314;28;20024;-71
2021/12/26 02:13:39;;;;;;;7.57;3.00;;;;;;;-2.61;92.27;100623.16;5272937;28;20096;-71
2021/12/26 02:16:11;;;;;;;7.63;3.78;;;;;;;-2.56;93.40;100620.41;5273051;28;20028;-71
2021/12/26 02:18:43;;;;;;;6.75;3.60;;;;;;;-2.48;95.25;100610.59;5271162;28;20036;-71
2021/12/26 02:25:06;;;;;;;7.03;3.78;;;;;;;-2.45;93.71;100620.13;5270366;28;20442;-71
2021/12/26 02:29:51;;;;;;;6.10;3.03;;;;;;;-2.42;94.20;100614.81;5271715;28;20037;-71
2021/12/26 02:32:23;;;;;;;7.43;4.10;;;;;;;-2.40;96.08;100602.56;5272707;28;20033;-71
2021/12/26 02:34:55;;;;;;;6.38;3.45;;;;;;;-2.39;94.86;100597.31;5263510;28;20448;-71
2021/12/26 02:37:27;;;;;;;6.38;3.78;;;;;;;-2.39;93.44;100599.91;5269004;28;20017;-71
2021/12/26 02:39:59;;;;;;;10.07;3.55;;;;;;;-2.38;93.91;100600.75;5267565;28;20082;-71
2021/12/26 02:42:30;;;;;;;9.68;3.60;;;;;;;-2.41;93.25;100586.03;5268534;28;20468;-71
2021/12/26 02:45:02;;;;;;;5.78;3.25;;;;;;;-2.38;93.01;100599.03;5271643;28;20471;-71
2021/12/26 02:47:37;;;;;;;6.32;2.95;;;;;;;-2.36;92.03;100596.34;5267205;28;20107;-71
2021/12/26 02:50:28;;;;;;;;;;;;;;;-2.29;96.47;100591.84;5268958;28;20397;-71
2021/12/26 02:53:01;;;;;;;7.80;4.00;;;;;;;-2.29;95.09;100587.47;5264711;28;20374;-71
2021/12/26 02:55:33;;;;;;;8.57;3.38;;;;;;;-2.31;92.43;100591.03;5264790;28;20856;-71
2021/12/26 02:58:08;;;;;;;8.18;3.35;;;;;;;-2.34;89.83;100597.16;5265738;28;20086;-71
2021/12/26 03:00:46;;;;;;;6.38;3.42;;;;;;;-2.33;91.44;100598.91;5263345;28;20169;-71
2021/12/26 03:03:18;;;;;;;7.20;3.40;;;;;;;-2.30;92.04;100596.22;5259791;28;20554;-71
2021/12/26 03:06:02;;;;;;;7.72;3.65;;;;;;;-2.26;92.97;100590.00;5264851;28;20128;-71
2021/12/26 03:08:33;;;;;;;5.70;3.03;;;;;;;-2.31;90.17;100591.88;5265907;28;20051;-71
2021/12/26 03:11:04;;;;;;;5.17;2.97;;;;;;;-2.32;90.73;100584.06;5265512;28;20847;-71
2021/12/26 03:13:36;;;;;;;7.07;3.40;;;;;;;-2.29;91.01;100591.84;5268568;28;20111;-71
2021/12/26 03:16:07;;;;;;;7.38;3.95;;;;;;;-2.28;91.70;100589.19;5261261;28;20040;-71
2021/12/26 03:18:38;;;;;;;5.72;3.22;;;;;;;-2.29;91.13;100594.44;5265605;28;20042;-71
2021/12/26 03:21:11;;;;;;;7.90;3.67;;;;;;;-2.29;92.96;100579.63;5262882;28;20063;-71
2021/12/26 03:23:42;;;;;;;7.45;3.80;;;;;;;-2.27;93.17;100569.97;5266284;28;20029;-71
2021/12/26 03:26:13;;;;;;;8.70;3.83;;;;;;;-2.32;91.68;100565.78;5262304;28;20038;-71
2021/12/26 03:28:44;;;;;;;7.80;3.97;;;;;;;-2.41;88.79;100553.84;5267839;28;20036;-71
2021/12/26 03:31:16;;;;;;;7.90;3.58;;;;;;;-2.54;88.79;100555.06;5267397;28;20033;-71
2021/12/26 03:33:47;;;;;;;7.32;3.38;;;;;;;-2.57;90.48;100558.59;5264738;28;20061;-71
2021/12/26 03:36:18;;;;;;;7.53;3.80;;;;;;;-2.59;91.90;100561.28;5262288;28;20539;-71
2021/12/26 03:38:50;;;;;;;9.70;4.00;;;;;;;-2.63;93.19;100567.50;5259628;28;20489;-71
2021/12/26 03:41:22;;;;;;;7.77;4.10;;;;;;;-2.70;93.13;100565.06;5260143;28;20553;-71
2021/12/26 03:43:53;;;;;;;8.38;4.00;;;;;;;-2.72;92.60;100583.41;5262117;28;20036;-71
2021/12/26 03:46:25;;;;;;;7.50;4.00;;;;;;;-2.79;94.52;100574.00;5261077;28;20089;-71
2021/12/26 03:49:00;;;;;;;6.68;3.70;;;;;;;-2.82;92.83;100577.56;5263514;28;20033;-71
2021/12/26 03:51:33;;;;;;;7.65;3.70;;;;;;;-2.88;92.80;100579.44;5261588;28;20029;-71
2021/12/26 03:54:06;;;;;;;7.18;3.58;;;;;;;-2.90;91.47;100582.09;5260761;28;20025;-71
2021/12/26 03:56:38;;;;;;;6.78;3.63;;;;;;;-2.90;93.32;100568.19;5259109;28;20390;-71
2021/12/26 03:59:09;;;;;;;6.68;3.85;;;;;;;-2.93;94.65;100570.88;5260513;28;20036;-71
2021/12/26 04:01:41;;;;;;;7.90;3.67;;;;;;;-3.01;92.65;100568.44;5265999;28;20028;-71
2021/12/26 04:04:12;;;;;;;7.53;4.00;;;;;;;-3.10;92.27;100569.56;5258096;28;20465;-71
2021/12/26 04:06:43;;;;;;;9.55;4.32;;;;;;;-3.03;94.87;100568.50;5260812;28;20036;-71
2021/12/26 04:09:16;;;;;;;8.13;4.03;;;;;;;-3.06;95.41;100568.56;5266631;28;20462;-71
2021/12/26 04:11:47;;;;;;;7.13;3.60;;;;;;;-3.12;93.79;100563.50;5265962;28;20032;-71
2021/12/26 04:14:18;;;;;;;8.70;3.80;;;;;;;-3.19;92.52;100559.34;5262134;28;20322;-71
2021/12/26 04:16:50;;;;;;;6.35;3.70;;;;;;;-3.17;93.14;100565.38;5259589;28;20032;-71
2021/12/26 04:19:21;;;;;;;8.13;4.10;;;;;;;-3.27;93.01;100554.31;5268793;28;20542;-71
2021/12/26 04:21:53;;;;;;;6.73;3.67;;;;;;;-3.22;94.48;100559.41;5263238;28;20449;-71
2021/12/26 04:24:24;;;;;;;6.80;3.87;;;;;;;-3.26;94.02;100561.25;5266349;28;20089;-71
2021/12/26 04:26:56;;;;;;;7.90;3.50;;;;;;;-3.29;93.72;100565.69;5258196;28;20032;-71
2021/12/26 04:29:27;;;;;;;9.07;4.27;;;;;;;-3.32;94.32;100557.91;5264000;28;20441;-71
2021/12/26 04:31:59;;;;;;;7.10;4.00;;;;;;;-3.31;94.66;100560.50;5263348;28;20040;-71
2021/12/26 04:34:30;;;;;;;7.03;3.93;;;;;;;-3.34;95.10;100555.34;5263171;28;20024;-71
2021/12/26 04:37:01;;;;;;;7.68;3.78;;;;;;;-3.42;93.45;100559.88;5265525;28;20032;-71
2021/12/26 04:39:32;;;;;;;8.55;4.13;;;;;;;-3.43;95.24;100555.53;5263776;28;20032;-71
2021/12/26 04:42:04;;;;;;;9.02;3.97;;;;;;;-3.49;93.59;100547.88;5263842;28;20036;-71
2021/12/26 04:44:36;;;;;;;8.15;3.83;;;;;;;-3.47;94.98;100549.56;5258893;28;20040;-71
2021/12/26 04:47:07;;;;;;;8.17;4.17;;;;;;;-3.50;95.86;100559.22;5264046;28;20033;-71
2021/12/26 04:49:38;;;;;;;6.47;3.73;;;;;;;-3.55;94.72;100549.75;5257859;28;20039;-71
2021/12/26 04:52:10;;;;;;;7.45;3.97;;;;;;;-3.57;95.55;100553.28;5263382;28;20780;-71
2021/12/26 04:54:41;;;;;;;6.37;3.90;;;;;;;-3.61;95.10;100546.41;5262776;28;20413;-71
2021/12/26 04:57:12;;;;;;;11.43;3.90;;;;;;;-3.61;95.79;100541.19;5263192;28;20487;-71
2021/12/26 04:59:44;;;;;;;8.17;3.93;;;;;;;-3.65;95.80;100552.59;5267660;28;20039;-71
2021/12/26 05:02:15;;;;;;;7.60;3.70;;;;;;;-3.66;95.01;100549.13;5261111;28;20398;-71
2021/12/26 05:04:46;;;;;;;6.97;3.73;;;;;;;-3.70;93.67;100552.72;5259014;28;20529;-71
2021/12/26 05:07:18;;;;;;;7.17;4.07;;;;;;;-3.64;95.43;100547.34;5259946;28;20029;-71
2021/12/26 05:09:49;;;;;;;7.50;3.70;;;;;;;-3.65;95.32;100550.00;5263582;28;20048;-71
2021/12/26 05:12:22;;;;;;;8.20;4.30;;;;;;;-3.72;95.52;100551.88;5263016;28;20041;-71
2021/12/26 05:14:54;;;;;;;6.20;3.47;;;;;;;-3.76;93.61;100545.00;5262834;28;20061;-71
2021/12/26 05:17:25;;;;;;;8.50;3.60;;;;;;;-3.77;94.38;100540.69;5265914;28;20036;-71
2021/12/26 05:19:56;;;;;;;8.13;4.33;;;;;;;-3.80;94.00;100541.59;5267889;28;20032;-71
2021/12/26 05:22:28;;;;;;;6.97;3.70;;;;;;;-3.80;94.72;100541.59;5260397;28;20031;-71
2021/12/26 05:24:59;;;;;;;8.90;4.80;;;;;;;-3.80;94.84;100540.75;5262041;28;20367;-71
2021/12/26 05:27:30;;;;;;;7.30;3.87;;;;;;;-3.83;95.07;100546.91;5256445;28;20486;-71
2021/12/26 05:30:04;;;;;;;9.97;4.50;;;;;;;-3.77;96.25;100536.34;5262620;28;20538;-71
2021/12/26 05:32:35;;;;;;;7.32;4.20;;;;;;;-3.83;96.54;100536.47;5264839;28;20138;-71
2021/12/26 05:35:08;;;;;;;8.30;4.53;;;;;;;-3.85;95.81;100533.06;5270861;28;20523;-71
2021/12/26 05:37:40;;;;;;;9.17;3.87;;;;;;;-3.82;96.99;100521.69;5267502;28;20032;-71
2021/12/26 05:40:12;;;;;;;7.13;3.83;;;;;;;-3.84;95.88;100524.31;5270423;28;20039;-71
2021/12/26 05:42:44;;;;;;;7.37;3.80;;;;;;;-3.88;95.84;100529.66;5264196;28;20573;-71
2021/12/26 05:45:16;;;;;;;8.77;4.07;;;;;;;-3.87;95.78;100521.81;5271903;28;20154;-71
2021/12/26 05:47:47;;;;;;;7.63;3.97;;;;;;;-3.86;96.92;100528.72;5256137;28;20021;-71
2021/12/26 05:50:20;;;;;;;9.33;4.40;;;;;;;-3.90;96.55;100524.47;5267354;28;20024;-71
2021/12/26 05:52:52;;;;;;;6.90;3.87;;;;;;;-3.90;95.99;100527.06;5268728;28;20039;-71
2021/12/26 05:55:23;;;;;;;8.70;4.23;;;;;;;-3.89;97.24;100518.38;5270755;28;20024;-71
2021/12/26 05:57:54;;;;;;;8.13;4.23;;;;;;;-3.96;96.24;100515.03;5274921;28;20032;-71
2021/12/26 06:00:25;;;;;;;8.67;4.03;;;;;;;-3.97;96.16;100517.66;5262354;28;20036;-71
2021/12/26 06:02:57;;;;;;;7.37;4.23;;;;;;;-3.98;96.71;100511.59;5257703;28;20047;-71
2021/12/26 06:05:28;;;;;;;8.17;4.37;;;;;;;-4.01;95.37;100509.09;5269161;28;20097;-71
2021/12/26 06:08:00;;;;;;;10.07;4.30;;;;;;;-4.02;96.15;100512.56;5261517;28;20032;-70
2021/12/26 06:10:31;;;;;;;7.93;4.70;;;;;;;-3.98;97.55;100510.75;5263731;28;20028;-71
2021/12/26 06:13:03;;;;;;;8.17;4.37;;;;;;;-4.00;97.95;100508.19;5274537;28;20033;-71
2021/12/26 06:15:35;;;;;;;7.73;4.13;;;;;;;-4.13;95.82;100504.97;5275746;28;20579;-71
2021/12/26 06:18:06;;;;;;;8.50;4.53;;;;;;;-4.08;95.76;100499.69;5273891;28;20407;-71
2021/12/26 06:20:37;;;;;;;8.70;4.40;;;;;;;-4.11;95.79;100504.09;5273024;28;20033;-71
2021/12/26 06:23:09;;;;;;;7.47;4.33;;;;;;;-4.09;95.94;100510.13;5267953;28;20020;-71
2021/12/26 06:25:40;;;;;;;8.40;4.70;;;;;;;-4.09;97.21;100508.38;5263123;28;20067;-71
2021/12/26 06:28:11;;;;;;;7.90;4.30;;;;;;;-4.11;97.52;100514.50;5271588;28;20037;-71
2021/12/26 06:30:43;;;;;;;7.97;4.07;;;;;;;-4.16;96.69;100507.66;5266392;28;20036;-71
2021/12/26 06:33:14;;;;;;;7.13;3.97;;;;;;;-4.14;96.32;100508.47;5273776;28;20481;-71
2021/12/26 06:35:45;;;;;;;8.57;4.23;;;;;;;-4.15;96.83;100509.34;5269057;28;20028;-71
2021/12/26 06:38:17;;;;;;;9.37;4.67;;;;;;;-4.11;97.98;100514.50;5277808;28;20040;-71
2021/12/26 06:40:48;;;;;;;7.37;4.43;;;;;;;-4.14;97.68;100518.06;5277122;28;20024;-71
2021/12/26 06:43:20;;;;;;;11.03;4.70;;;;;;;-4.18;97.50;100517.25;5274835;28;20052;-71
2021/12/26 06:45:52;;;;;;;9.70;4.27;;;;;;;-4.19;97.46;100525.09;5269520;28;20449;-71
2021/12/26 06:48:24;;;;;;;11.83;5.27;;;;;;;-4.27;96.68;100521.81;5280119;28;20028;-71
2021/12/26 06:50:55;;;;;;;9.77;4.47;;;;;;;-4.28;96.56;100525.28;5267643;28;20028;-71
2021/12/26 06:53:27;;;;;;;10.40;4.87;;;;;;;-4.21;97.75;100519.91;5272169;28;20060;-71
2021/12/26 06:55:58;;;;;;;9.67;4.83;;;;;;;-4.26;97.48;100519.16;5271782;28;20037;-71
2021/12/26 06:58:30;;;;;;;9.93;5.20;;;;;;;-4.26;97.41;100511.34;5267057;28;20387;-71
2021/12/26 07:01:01;;;;;;;8.03;4.50;;;;;;;-4.30;97.10;100520.09;5264754;28;20033;-71
2021/12/26 07:03:32;;;;;;;8.63;4.57;;;;;;;-4.30;97.11;100514.88;5267466;28;20081;-71
2021/12/26 07:06:04;;;;;;;8.57;4.53;;;;;;;-4.28;98.16;100507.91;5271973;28;20032;-71
2021/12/26 07:08:35;;;;;;;9.20;4.50;;;;;;;-4.23;98.46;100516.50;5260870;28;20045;-71
2021/12/26 07:11:06;;;;;;;8.63;4.87;;;;;;;-4.24;98.08;100513.91;5269020;28;20024;-72
2021/12/26 07:13:38;;;;;;;12.30;5.30;;;;;;;-4.25;98.33;100513.06;5270613;28;20048;-71
2021/12/26 07:16:10;;;;;;;7.50;4.37;;;;;;;-4.27;97.79;100516.59;5273233;28;20029;-71
2021/12/26 07:18:41;;;;;;;9.73;4.53;;;;;;;-4.29;97.47;100519.22;5269403;28;20036;-71
2021/12/26 07:21:12;;;;;;;11.13;5.00;;;;;;;-4.28;97.63;100517.47;5269594;28;20450;-71
2021/12/26 07:23:44;;;;;;;9.97;5.33;;;;;;;-4.28;97.85;100513.13;5269652;28;20028;-71
2021/12/26 07:26:15;;;;;;;8.27;4.73;;;;;;;-4.23;98.25;100513.88;5264890;28;20052;-71
2021/12/26 07:28:46;;;;;;;8.63;5.20;;;;;;;-4.28;98.21;100509.66;5267059;28;20037;-71
2021/12/26 07:31:18;;;;;;;8.30;4.83;;;;;;;-4.24;98.03;100519.13;5266674;28;20031;-71
2021/12/26 07:33:49;;;;;;;9.23;4.83;;;;;;;-4.28;97.43;100512.25;5274058;28;20089;-71
2021/12/26 07:36:20;;;;;;;11.00;5.40;;;;;;;-4.23;97.82;100508.69;5268380;28;20033;-71
2021/12/26 07:38:51;;;;;;;9.13;5.07;;;;;;;-4.18;98.97;100499.03;5265311;28;20100;-71
2021/12/26 07:41:23;;;;;;;10.10;5.47;;;;;;;-4.23;98.53;100500.88;5273066;28;20401;-71
2021/12/26 07:43:54;;;;;;;9.67;5.10;;;;;;;-4.19;98.64;100501.66;5266145;28;20422;-71
2021/12/26 07:46:26;;;;;;;11.60;5.57;;;;;;;-4.22;98.88;100509.53;5270692;28;20055;-71
2021/12/26 07:48:57;;;;;;;10.40;5.10;;;;;;;-4.21;98.70;100503.44;5270898;28;20470;-72
2021/12/26 07:51:28;;;;;;;10.00;5.70;;;;;;;-4.23;99.35;100510.44;5264399;28;20490;-71
2021/12/26 07:54:01;;;;;;;10.77;5.87;;;;;;;-4.23;98.67;100513.88;5269664;28;20111;-71
2021/12/26 07:56:33;;;;;;;11.17;5.53;;;;;;;-4.25;98.68;100510.47;5271265;28;20029;-71
2021/12/26 07:59:04;;;;;;;9.07;5.47;;;;;;;-4.25;98.92;100509.59;5270906;28;20624;-71
2021/12/26 08:01:36;;;;;;;9.10;5.27;;;;;;;-4.26;99.53;100516.53;5266731;28;20108;-71
2021/12/26 08:04:11;;;;;;;11.13;5.67;;;;;;;-4.27;99.89;100516.59;5273802;28;20051;-71
2021/12/26 08:06:42;;;;;;;9.73;5.40;;;;;;;-4.27;99.60;100525.25;5276402;28;20619;-71
2021/12/26 08:09:14;;;;;;;8.40;4.93;;;;;;;-4.28;98.96;100526.13;5258745;28;20071;-71
2021/12/26 08:11:46;;;;;;;10.50;5.90;;;;;;;-4.20;99.35;100523.38;5264541;28;20094;-71
2021/12/26 08:14:17;;;;;;;9.83;5.20;;;;;;;-4.20;99.22;100516.44;5260642;28;20024;-71
2021/12/26 08:16:49;;;;;;;13.43;6.07;;;;;;;-4.15;98.76;100518.94;5269507;28;20051;-71
2021/12/26 08:19:20;;;;;;;10.53;5.90;;;;;;;-4.07;98.45;100519.63;5271845;28;20028;-71
2021/12/26 08:21:52;;;;;;;11.30;5.77;;;;;;;-3.98;98.75;100518.56;5265337;28;21417;-71
2021/12/26 08:24:26;;;;;;;11.23;5.30;;;;;;;-3.89;99.07;100518.38;5260431;28;20046;-71
2021/12/26 08:26:57;;;;;;;11.80;6.20;;;;;;;-3.78;99.98;100526.81;5265430;28;20058;-71
2021/12/26 08:29:29;;;;;;;10.37;5.90;;;;;;;-3.74;99.19;100522.38;5265206;28;20050;-71
2021/12/26 08:32:01;;;;;;;11.73;6.47;;;;;;;-3.64;98.98;100523.03;5268692;28;20108;-71
2021/12/26 08:34:32;;;;;;;9.63;5.37;;;;;;;-3.58;98.92;100512.47;5261210;28;20042;-71
2021/12/26 08:37:05;;;;;;;12.57;6.13;;;;;;;-3.52;98.36;100514.06;5261309;28;20030;-72
2021/12/26 08:39:41;;;;;;;10.47;5.83;;;;;;;-3.42;99.02;100515.56;5266398;28;20025;-71
2021/12/26 08:42:14;;;;;;;13.07;5.73;;;;;;;-3.31;99.47;100504.88;5270757;28;20459;-72
2021/12/26 08:44:45;;;;;;;12.40;6.20;;;;;;;-3.26;99.46;100505.59;5279308;28;20028;-71
2021/12/26 08:47:16;;;;;;;12.57;6.73;;;;;;;-3.20;98.34;100503.69;5269378;28;20074;-71
2021/12/26 08:49:48;;;;;;;10.07;5.47;;;;;;;-3.10;99.02;100504.31;5261979;28;20021;-71
2021/12/26 08:52:19;;;;;;;12.13;5.90;;;;;;;-3.00;98.82;100508.38;5259980;28;20042;-72
2021/12/26 08:54:50;;;;;;;11.73;6.33;;;;;;;-2.94;98.59;100506.53;5260977;28;20048;-72
2021/12/26 08:57:22;;;;;;;11.07;5.95;;;;;;;-2.90;98.41;100500.31;5268432;28;20122;-72
2021/12/26 08:59:53;;;;;;;12.10;6.10;;;;;;;-2.84;97.51;100503.66;5271924;28;20036;-72
2021/12/26 09:02:25;;;;;;;11.23;6.15;;;;;;;-2.72;99.00;100510.28;5267750;28;20039;-72
2021/12/26 09:04:56;;;;;;;12.30;6.68;;;;;;;-2.69;98.87;100512.78;5266583;28;20064;-71
2021/12/26 09:07:28;;;;;;;10.25;6.05;;;;;;;-2.64;97.52;100505.69;5267412;28;20028;-72
2021/12/26 09:10:01;;;;;;;13.05;6.50;;;;;;;-2.53;98.86;100494.97;5265983;28;20070;-71
2021/12/26 09:12:32;;;;;;;10.57;6.07;;;;;;;-2.50;97.69;100481.81;5261600;28;20036;-71
2021/12/26 09:15:06;;;;;;;11.68;6.60;;;;;;;-2.43;97.45;100493.78;5260493;28;20478;-71
2021/12/26 09:17:39;;;;;;;10.57;6.55;;;;;;;-2.34;97.04;100500.50;5260249;28;20033;-71
2021/12/26 09:20:11;;;;;;;10.68;6.05;;;;;;;-2.26;98.15;100502.88;5274431;28;20378;-71
2021/12/26 09:22:42;;;;;;;10.30;6.00;;;;;;;-2.26;96.89;100493.31;5263777;28;20032;-71
2021/12/26 09:25:14;;;;;;;15.57;6.77;;;;;;;-2.20;95.92;100497.50;5269870;28;20036;-71
2021/12/26 09:27:45;;;;;;;10.13;5.72;;;;;;;-2.15;95.19;100502.59;5272020;28;20063;-71
2021/12/26 09:30:16;;;;;;;12.05;6.32;;;;;;;-2.11;95.53;100504.19;5268833;28;20052;-71
2021/12/26 09:32:48;;;;;;;12.23;6.53;;;;;;;-2.04;95.63;100508.34;5259517;28;20033;-71
2021/12/26 09:35:20;;;;;;;10.27;5.90;;;;;;;-2.00;95.43;100496.91;5268683;28;20466;-71
2021/12/26 09:37:51;;;;;;;11.50;6.10;;;;;;;-1.96;94.52;100511.59;5265752;28;20040;-71
2021/12/26 09:40:23;;;;;;;12.10;6.68;;;;;;;-1.91;95.38;100501.84;5259308;28;20032;-71
2021/12/26 09:42:55;;;;;;;10.95;6.45;;;;;;;-1.85;96.39;100503.41;5263987;28;20556;-71
2021/12/26 09:45:26;;;;;;;14.00;6.80;;;;;;;-1.75;96.23;100511.84;5273751;28;20481;-71
2021/12/26 09:47:57;;;;;;;13.73;6.53;;;;;;;-1.72;95.74;100515.22;5265336;28;20072;-71
2021/12/26 09:50:29;;;;;;;11.10;6.72;;;;;;;-1.63;96.01;100520.16;5266034;28;20025;-71
2021/12/26 09:53:00;;;;;;;12.35;7.03;;;;;;;-1.62;94.81;100508.78;5271256;28;20061;-71
2021/12/26 09:55:31;;;;;;;11.48;6.65;;;;;;;-1.53;96.08;100510.25;5270700;28;20613;-71
2021/12/26 09:58:03;;;;;;;13.35;6.55;;;;;;;-1.45;97.02;100505.63;5265296;28;20055;-71
2021/12/26 10:00:40;;;;;;;12.65;6.93;;;;;;;-1.43;95.88;100495.13;5266554;28;20501;-72
2021/12/26 10:03:17;;;;;;;13.32;7.28;;;;;;;-1.36;95.84;100501.00;5265769;28;20115;-72
2021/12/26 10:06:17;;;;;;;12.85;7.03;;;;;;;-1.28;95.87;100493.78;5271057;28;20067;-71
2021/12/26 10:08:57;;;;;;;15.25;7.60;;;;;;;-1.24;96.63;100487.53;5264357;28;20059;-71
2021/12/26 10:11:34;;;;;;;14.70;7.30;;;;;;;-1.22;95.85;100475.25;5268280;28;20042;-71
2021/12/26 10:14:08;;;;;;;14.10;7.88;;;;;;;-1.17;96.23;100469.84;5263373;28;20034;-71
2021/12/26 10:17:03;;;;;;;13.30;7.20;;;;;;;-1.16;96.23;100467.16;5268244;28;20040;-72
2021/12/26 10:19:36;;;;;;;12.73;7.45;;;;;;;-1.13;95.24;100467.06;5270132;28;20171;-72
2021/12/26 10:22:10;;;;;;;13.10;7.50;;;;;;;-1.09;96.48;100459.97;5277039;28;20036;-72
2021/12/26 10:24:45;;;;;;;14.50;7.47;;;;;;;-1.08;95.42;100461.66;5276203;28;20471;-72
2021/12/26 10:27:21;;;;;;;12.07;7.20;;;;;;;-1.01;97.43;100466.66;5267342;28;20060;-72
2021/12/26 10:29:55;;;;;;;13.05;7.68;;;;;;;-1.01;96.33;100463.19;5271604;28;20115;-73
2021/12/26 10:32:31;;;;;;;13.90;8.23;;;;;;;-1.00;96.82;100457.00;5278043;28;20024;-72
2021/12/26 10:35:15;;;;;;;12.88;8.05;;;;;;;-0.92;96.73;100451.50;5268490;28;20037;-72
2021/12/26 10:37:51;;;;;;;14.98;8.00;;;;;;;-0.90;96.95;100450.56;5272826;28;20031;-72
2021/12/26 10:40:25;;;;;;;15.48;8.63;;;;;;;-0.82;98.30;100452.91;5276112;28;20027;-71
2021/12/26 10:42:59;;;;;;;18.38;8.45;;;;;;;-0.80;97.26;100445.84;5270855;28;20033;-72
2021/12/26 10:45:34;;;;;;;15.98;8.27;;;;;;;-0.77;95.99;100450.13;5275063;28;20129;-72
2021/12/26 10:48:07;;;;;;;18.05;9.05;;;;;;;-0.75;96.49;100449.13;5262003;28;20098;-71
2021/12/26 10:50:40;;;;;;;13.38;7.72;;;;;;;-0.76;95.17;100436.97;5272576;28;20047;-71
2021/12/26 10:53:14;;;;;;;15.75;8.43;;;;;;;-0.71;95.25;100439.41;5277647;28;20036;-71
2021/12/26 10:55:51;;;;;;;12.88;8.57;;;;;;;-0.71;96.33;100424.56;5261170;28;20025;-71
2021/12/26 10:58:24;;;;;;;16.95;8.93;;;;;;;-0.63;96.74;100440.00;5258675;28;20051;-71
2021/12/26 11:00:57;;;;;;;14.75;8.50;;;;;;;-0.57;97.82;100439.78;5264265;28;20033;-71
2021/12/26 11:03:30;;;;;;;14.18;8.32;;;;;;;-0.59;97.23;100428.50;5274671;28;20033;-71
2021/12/26 11:06:06;;;;;;;17.55;8.30;;;;;;;-0.51;97.25;100423.81;5269779;28;20029;-71
2021/12/26 11:08:42;;;;;;;15.85;8.93;;;;;;;-0.48;97.35;100420.22;5260392;28;20067;-71
2021/12/26 11:11:18;;;;;;;15.25;8.65;;;;;;;-0.46;96.52;100419.28;5263295;28;20492;-71
2021/12/26 11:14:01;;;;;;;15.32;9.10;;;;;;;-0.43;96.87;100419.13;5258741;28;20059;-70
2021/12/26 11:16:39;;;;;;;20.73;9.15;;;;;;;-0.40;96.27;100420.81;5262223;28;20079;-70
2021/12/26 11:19:10;;;;;;;16.80;8.45;;;;;;;-0.34;97.98;100433.66;5269257;28;20031;-70
2021/12/26 11:21:42;;;;;;;15.07;8.40;;;;;;;-0.33;96.49;100424.03;5270622;28;20478;-70
2021/12/26 11:24:13;;;;;;;13.63;8.50;;;;;;;-0.30;96.41;100421.31;5263835;28;20064;-70
2021/12/26 11:26:45;;;;;;;15.40;8.93;;;;;;;-0.31;97.85;100409.94;5266363;28;20089;-70
2021/12/26 11:29:16;;;;;;;16.20;8.43;;;;;;;-0.26;96.61;100420.28;5262589;28;20020;-70
2021/12/26 11:31:50;;;;;;;16.38;8.88;;;;;;;-0.27;96.15;100401.06;5267379;28;21417;-70
2021/12/26 11:34:22;;;;;;;;;;;;;;;-0.23;99.17;100401.78;5263631;28;20032;-71
2021/12/26 11:36:54;;;;;;;18.05;8.70;;;;;;;-0.18;97.50;100401.63;5269261;28;20393;-70
2021/12/26 11:39:26;;;;;;;16.17;8.90;;;;;;;-0.16;96.90;100397.16;5271483;28;20040;-70
2021/12/26 11:42:29;;;;;;;15.57;9.07;;;;;;;-0.11;98.07;100400.47;5260534;28;20612;-70
2021/12/26 11:45:21;;;;;;;13.48;8.50;;;;;;;-0.04;98.81;100413.28;5257461;28;20275;-71
2021/12/26 11:48:25;;;;;;;16.48;9.63;;;;;;;-0.02;99.15;100424.56;5260422;28;20389;-70
2021/12/26 11:51:16;;;;;;;16.25;8.77;;;;;;;0.05;98.85;100417.28;5261152;28;20029;-70
2021/12/26 11:54:31;;;;;;;16.65;9.40;;;;;;;0.08;98.41;100411.94;5260991;28;20032;-70
2021/12/26 11:57:27;;;;;;;17.73;9.60;;;;;;;0.10;97.02;100402.22;5263042;28;20039;-70